sensor_id;sensor_type;location;lat;lon;timestamp;P1;P2;P0
72854;PMS7003;60991;51.278;22.550;2023-05-10T00:00:33;11.00;7.75;5.50
72854;PMS7003;60991;51.278;22.550;2023-05-10T00:02:03;12.25;11.00;7.50
72854;PMS7003;60991;51.278;22.550;2023-05-10T00:03:33;8.75;8.75;6.25
72854;PMS7003;60991;51.278;22.550;2023-05-10T00:05:04;10.00;8.33;5.67
72854;PMS7003;60991;51.278;22.550;2023-05-10T00:06:34;13.00;9.00;5.25
72854;PMS7003;60991;51.278;22.550;2023-05-10T00:08:05;5.00;5.00;4.67
72854;PMS7003;60991;51.278;22.550;2023-05-10T00:09:35;10.00;6.33;6.33
72854;PMS7003;60991;51.278;22.550;2023-05-10T00:11:05;10.75;8.75;7.75
72854;PMS7003;60991;51.278;22.550;2023-05-10T00:12:35;10.50;9.50;8.75
72854;PMS7003;60991;51.278;22.550;2023-05-10T00:14:06;12.50;10.25;8.00
72854;PMS7003;60991;51.278;22.550;2023-05-10T00:15:36;7.33;6.00;4.67
72854;PMS7003;60991;51.278;22.550;2023-05-10T00:17:06;9.00;9.00;6.50
72854;PMS7003;60991;51.278;22.550;2023-05-10T00:18:36;12.50;11.00;9.00
72854;PMS7003;60991;51.278;22.550;2023-05-10T00:20:07;9.75;9.25;7.50
72854;PMS7003;60991;51.278;22.550;2023-05-10T00:21:37;9.50;6.25;3.75
72854;PMS7003;60991;51.278;22.550;2023-05-10T00:23:08;11.00;9.33;7.33
72854;PMS7003;60991;51.278;22.550;2023-05-10T00:24:38;12.50;10.25;8.00
72854;PMS7003;60991;51.278;22.550;2023-05-10T00:26:08;13.50;8.00;7.00
72854;PMS7003;60991;51.278;22.550;2023-05-10T00:27:38;8.67;8.67;5.00
72854;PMS7003;60991;51.278;22.550;2023-05-10T00:29:08;11.00;10.00;5.75
72854;PMS7003;60991;51.278;22.550;2023-05-10T00:30:39;11.50;9.25;7.75
72854;PMS7003;60991;51.278;22.550;2023-05-10T00:32:09;10.33;10.33;8.00
72854;PMS7003;60991;51.278;22.550;2023-05-10T00:33:39;9.00;5.00;4.00
72854;PMS7003;60991;51.278;22.550;2023-05-10T00:35:09;15.50;13.00;10.00
72854;PMS7003;60991;51.278;22.550;2023-05-10T00:36:40;6.25;6.25;6.00
72854;PMS7003;60991;51.278;22.550;2023-05-10T00:38:10;10.00;8.00;5.67
72854;PMS7003;60991;51.278;22.550;2023-05-10T00:39:40;14.25;8.75;7.00
72854;PMS7003;60991;51.278;22.550;2023-05-10T00:41:10;15.33;10.67;7.33
72854;PMS7003;60991;51.278;22.550;2023-05-10T00:42:40;8.67;8.67;7.00
72854;PMS7003;60991;51.278;22.550;2023-05-10T00:44:11;9.00;9.00;7.00
72854;PMS7003;60991;51.278;22.550;2023-05-10T00:45:41;10.50;10.50;8.25
72854;PMS7003;60991;51.278;22.550;2023-05-10T00:47:11;10.00;8.00;6.25
72854;PMS7003;60991;51.278;22.550;2023-05-10T00:48:42;9.50;8.50;5.00
72854;PMS7003;60991;51.278;22.550;2023-05-10T00:50:13;14.75;10.00;8.25
72854;PMS7003;60991;51.278;22.550;2023-05-10T00:51:44;10.00;9.00;8.00
72854;PMS7003;60991;51.278;22.550;2023-05-10T00:53:15;11.00;9.25;7.00
72854;PMS7003;60991;51.278;22.550;2023-05-10T00:54:45;14.75;10.50;8.00
72854;PMS7003;60991;51.278;22.550;2023-05-10T00:56:17;13.75;9.75;7.50
72854;PMS7003;60991;51.278;22.550;2023-05-10T00:57:47;10.25;9.50;7.00
72854;PMS7003;60991;51.278;22.550;2023-05-10T00:59:18;9.50;8.75;5.75
72854;PMS7003;60991;51.278;22.550;2023-05-10T01:00:49;9.50;9.50;8.00
72854;PMS7003;60991;51.278;22.550;2023-05-10T01:02:20;9.50;8.75;8.00
72854;PMS7003;60991;51.278;22.550;2023-05-10T01:03:50;10.50;9.50;7.50
72854;PMS7003;60991;51.278;22.550;2023-05-10T01:05:21;9.00;7.75;7.00
72854;PMS7003;60991;51.278;22.550;2023-05-10T01:06:52;7.75;7.75;6.25
72854;PMS7003;60991;51.278;22.550;2023-05-10T01:08:22;10.25;9.50;7.25
72854;PMS7003;60991;51.278;22.550;2023-05-10T01:09:53;11.00;8.75;7.50
72854;PMS7003;60991;51.278;22.550;2023-05-10T01:11:23;12.00;9.75;8.00
72854;PMS7003;60991;51.278;22.550;2023-05-10T01:12:54;8.50;8.50;8.00
72854;PMS7003;60991;51.278;22.550;2023-05-10T01:14:24;11.00;9.75;7.25
72854;PMS7003;60991;51.278;22.550;2023-05-10T01:15:56;11.25;8.50;6.50
72854;PMS7003;60991;51.278;22.550;2023-05-10T01:17:26;1.00;1.00;1.00
72854;PMS7003;60991;51.278;22.550;2023-05-10T01:18:57;11.00;9.50;7.00
72854;PMS7003;60991;51.278;22.550;2023-05-10T01:20:27;7.50;7.50;6.00
72854;PMS7003;60991;51.278;22.550;2023-05-10T01:31:03;12.75;8.00;7.75
72854;PMS7003;60991;51.278;22.550;2023-05-10T01:34:39;8.50;7.75;6.00
72854;PMS7003;60991;51.278;22.550;2023-05-10T01:36:39;14.00;8.25;7.50
72854;PMS7003;60991;51.278;22.550;2023-05-10T01:38:17;7.00;7.00;6.75
72854;PMS7003;60991;51.278;22.550;2023-05-10T01:39:57;10.00;8.50;7.25
72854;PMS7003;60991;51.278;22.550;2023-05-10T01:47:28;11.00;9.00;7.75
72854;PMS7003;60991;51.278;22.550;2023-05-10T01:49:15;13.25;7.25;5.25
72854;PMS7003;60991;51.278;22.550;2023-05-10T01:50:53;8.00;7.25;6.00
72854;PMS7003;60991;51.278;22.550;2023-05-10T01:52:26;10.25;9.50;6.00
72854;PMS7003;60991;51.278;22.550;2023-05-10T01:54:02;8.00;6.75;5.25
72854;PMS7003;60991;51.278;22.550;2023-05-10T01:55:36;7.00;7.00;5.25
72854;PMS7003;60991;51.278;22.550;2023-05-10T01:57:12;10.75;7.75;6.50
72854;PMS7003;60991;51.278;22.550;2023-05-10T01:58:46;9.00;7.50;7.00
72854;PMS7003;60991;51.278;22.550;2023-05-10T02:00:18;6.25;4.50;4.00
72854;PMS7003;60991;51.278;22.550;2023-05-10T02:01:50;10.00;7.50;6.75
72854;PMS7003;60991;51.278;22.550;2023-05-10T02:03:22;7.50;7.50;7.00
72854;PMS7003;60991;51.278;22.550;2023-05-10T02:04:55;7.00;7.00;6.00
72854;PMS7003;60991;51.278;22.550;2023-05-10T02:06:27;5.50;5.50;5.25
72854;PMS7003;60991;51.278;22.550;2023-05-10T02:07:58;10.33;8.00;7.33
72854;PMS7003;60991;51.278;22.550;2023-05-10T02:09:30;9.25;8.00;5.25
72854;PMS7003;60991;51.278;22.550;2023-05-10T02:11:03;9.00;8.50;7.50
72854;PMS7003;60991;51.278;22.550;2023-05-10T02:12:35;8.00;7.00;5.25
72854;PMS7003;60991;51.278;22.550;2023-05-10T02:14:07;8.50;6.75;4.25
72854;PMS7003;60991;51.278;22.550;2023-05-10T02:15:41;7.25;5.75;4.00
72854;PMS7003;60991;51.278;22.550;2023-05-10T02:17:12;10.50;8.50;7.00
72854;PMS7003;60991;51.278;22.550;2023-05-10T02:18:44;10.00;8.00;7.25
72854;PMS7003;60991;51.278;22.550;2023-05-10T02:20:15;10.00;8.00;6.75
72854;PMS7003;60991;51.278;22.550;2023-05-10T02:21:46;8.00;7.75;7.00
72854;PMS7003;60991;51.278;22.550;2023-05-10T02:23:18;7.25;7.25;4.75
72854;PMS7003;60991;51.278;22.550;2023-05-10T02:24:50;7.50;7.50;7.00
72854;PMS7003;60991;51.278;22.550;2023-05-10T02:26:20;7.50;7.50;6.00
72854;PMS7003;60991;51.278;22.550;2023-05-10T02:27:56;8.00;7.75;6.75
72854;PMS7003;60991;51.278;22.550;2023-05-10T02:29:29;10.00;8.25;6.50
72854;PMS7003;60991;51.278;22.550;2023-05-10T02:31:02;6.25;6.25;5.50
72854;PMS7003;60991;51.278;22.550;2023-05-10T02:32:32;8.75;6.50;4.75
72854;PMS7003;60991;51.278;22.550;2023-05-10T02:34:05;8.50;6.50;5.75
72854;PMS7003;60991;51.278;22.550;2023-05-10T02:35:37;5.50;5.50;4.00
72854;PMS7003;60991;51.278;22.550;2023-05-10T02:37:08;7.50;7.50;6.00
72854;PMS7003;60991;51.278;22.550;2023-05-10T02:38:39;4.00;4.00;3.00
72854;PMS7003;60991;51.278;22.550;2023-05-10T02:40:10;8.50;7.00;6.00
72854;PMS7003;60991;51.278;22.550;2023-05-10T02:41:42;9.50;7.50;6.00
72854;PMS7003;60991;51.278;22.550;2023-05-10T02:43:16;8.25;8.00;6.75
72854;PMS7003;60991;51.278;22.550;2023-05-10T02:44:49;8.00;7.00;6.00
72854;PMS7003;60991;51.278;22.550;2023-05-10T02:46:22;6.75;6.00;4.75
72854;PMS7003;60991;51.278;22.550;2023-05-10T02:47:53;11.75;9.00;7.00
72854;PMS7003;60991;51.278;22.550;2023-05-10T02:49:24;7.75;7.00;6.00
72854;PMS7003;60991;51.278;22.550;2023-05-10T02:50:54;8.25;8.25;7.75
72854;PMS7003;60991;51.278;22.550;2023-05-10T02:52:34;8.50;7.00;5.50
72854;PMS7003;60991;51.278;22.550;2023-05-10T02:54:10;10.25;7.00;6.50
72854;PMS7003;60991;51.278;22.550;2023-05-10T02:55:45;9.50;7.75;7.00
72854;PMS7003;60991;51.278;22.550;2023-05-10T02:57:22;12.50;11.50;7.25
72854;PMS7003;60991;51.278;22.550;2023-05-10T02:58:57;9.00;9.00;6.25
72854;PMS7003;60991;51.278;22.550;2023-05-10T03:00:27;12.00;7.50;5.50
72854;PMS7003;60991;51.278;22.550;2023-05-10T03:01:59;13.50;9.50;8.25
72854;PMS7003;60991;51.278;22.550;2023-05-10T03:03:30;7.00;7.00;6.00
72854;PMS7003;60991;51.278;22.550;2023-05-10T03:05:00;11.50;8.75;6.75
72854;PMS7003;60991;51.278;22.550;2023-05-10T03:06:30;8.25;6.75;6.50
72854;PMS7003;60991;51.278;22.550;2023-05-10T03:08:00;11.75;7.00;6.00
72854;PMS7003;60991;51.278;22.550;2023-05-10T03:09:31;9.00;8.00;6.50
72854;PMS7003;60991;51.278;22.550;2023-05-10T03:13:30;9.00;7.00;6.00
72854;PMS7003;60991;51.278;22.550;2023-05-10T03:15:22;9.50;7.00;7.00
72854;PMS7003;60991;51.278;22.550;2023-05-10T03:17:04;8.00;7.00;6.00
72854;PMS7003;60991;51.278;22.550;2023-05-10T03:18:50;8.00;5.50;5.00
72854;PMS7003;60991;51.278;22.550;2023-05-10T03:20:29;6.25;5.25;4.00
72854;PMS7003;60991;51.278;22.550;2023-05-10T03:22:06;9.25;7.75;6.75
72854;PMS7003;60991;51.278;22.550;2023-05-10T03:23:43;9.00;7.00;6.00
72854;PMS7003;60991;51.278;22.550;2023-05-10T03:25:17;10.00;7.25;6.50
72854;PMS7003;60991;51.278;22.550;2023-05-10T03:26:50;4.50;4.50;3.50
72854;PMS7003;60991;51.278;22.550;2023-05-10T03:28:24;7.50;7.50;6.00
72854;PMS7003;60991;51.278;22.550;2023-05-10T03:29:56;7.50;6.25;5.50
72854;PMS7003;60991;51.278;22.550;2023-05-10T03:31:27;11.50;8.00;6.00
72854;PMS7003;60991;51.278;22.550;2023-05-10T03:32:57;5.00;5.00;5.00
72854;PMS7003;60991;51.278;22.550;2023-05-10T03:34:29;3.50;3.50;3.25
72854;PMS7003;60991;51.278;22.550;2023-05-10T03:36:00;8.25;6.75;5.00
72854;PMS7003;60991;51.278;22.550;2023-05-10T03:37:30;10.67;8.00;7.33
72854;PMS7003;60991;51.278;22.550;2023-05-10T03:39:00;8.00;7.00;6.33
72854;PMS7003;60991;51.278;22.550;2023-05-10T03:40:30;10.67;6.67;6.67
72854;PMS7003;60991;51.278;22.550;2023-05-10T03:42:01;10.33;7.00;6.67
72854;PMS7003;60991;51.278;22.550;2023-05-10T03:43:31;6.00;6.00;4.50
72854;PMS7003;60991;51.278;22.550;2023-05-10T03:45:01;8.50;6.00;4.75
72854;PMS7003;60991;51.278;22.550;2023-05-10T03:46:31;6.00;6.00;6.00
72854;PMS7003;60991;51.278;22.550;2023-05-10T03:48:02;10.00;6.25;5.50
72854;PMS7003;60991;51.278;22.550;2023-05-10T03:49:32;9.00;8.00;6.50
72854;PMS7003;60991;51.278;22.550;2023-05-10T03:51:03;11.33;9.00;7.00
72854;PMS7003;60991;51.278;22.550;2023-05-10T03:52:33;7.00;7.00;5.50
72854;PMS7003;60991;51.278;22.550;2023-05-10T03:54:03;7.67;5.33;4.00
72854;PMS7003;60991;51.278;22.550;2023-05-10T03:55:33;6.50;6.50;4.00
72854;PMS7003;60991;51.278;22.550;2023-05-10T03:57:04;7.00;7.00;6.00
72854;PMS7003;60991;51.278;22.550;2023-05-10T03:58:34;7.00;7.00;6.00
72854;PMS7003;60991;51.278;22.550;2023-05-10T04:00:04;5.33;5.33;4.00
72854;PMS7003;60991;51.278;22.550;2023-05-10T04:01:35;12.75;7.25;5.25
72854;PMS7003;60991;51.278;22.550;2023-05-10T04:03:05;6.00;6.00;6.00
72854;PMS7003;60991;51.278;22.550;2023-05-10T04:04:35;9.67;5.33;3.00
72854;PMS7003;60991;51.278;22.550;2023-05-10T04:06:05;9.50;8.00;6.00
72854;PMS7003;60991;51.278;22.550;2023-05-10T04:07:35;7.00;7.00;4.00
72854;PMS7003;60991;51.278;22.550;2023-05-10T04:09:06;8.00;7.67;6.67
72854;PMS7003;60991;51.278;22.550;2023-05-10T04:10:36;11.00;9.00;7.00
72854;PMS7003;60991;51.278;22.550;2023-05-10T04:12:06;5.33;5.33;3.00
72854;PMS7003;60991;51.278;22.550;2023-05-10T04:13:36;6.33;6.00;6.00
72854;PMS7003;60991;51.278;22.550;2023-05-10T04:15:07;13.75;9.75;7.00
72854;PMS7003;60991;51.278;22.550;2023-05-10T04:16:38;9.00;6.25;6.00
72854;PMS7003;60991;51.278;22.550;2023-05-10T04:18:08;8.33;7.00;6.67
72854;PMS7003;60991;51.278;22.550;2023-05-10T04:19:38;3.67;3.33;3.33
72854;PMS7003;60991;51.278;22.550;2023-05-10T04:21:11;8.00;8.00;7.00
72854;PMS7003;60991;51.278;22.550;2023-05-10T04:22:42;8.25;8.25;6.00
72854;PMS7003;60991;51.278;22.550;2023-05-10T04:24:12;7.00;6.00;5.00
72854;PMS7003;60991;51.278;22.550;2023-05-10T04:25:43;6.00;6.00;4.67
72854;PMS7003;60991;51.278;22.550;2023-05-10T04:27:13;4.00;4.00;3.25
72854;PMS7003;60991;51.278;22.550;2023-05-10T04:28:43;6.00;6.00;5.33
72854;PMS7003;60991;51.278;22.550;2023-05-10T04:30:13;6.33;6.33;4.67
72854;PMS7003;60991;51.278;22.550;2023-05-10T04:31:43;4.75;3.25;3.00
72854;PMS7003;60991;51.278;22.550;2023-05-10T04:33:14;4.00;4.00;3.00
72854;PMS7003;60991;51.278;22.550;2023-05-10T04:34:44;4.00;4.00;3.67
72854;PMS7003;60991;51.278;22.550;2023-05-10T04:36:14;10.75;5.25;4.50
72854;PMS7003;60991;51.278;22.550;2023-05-10T04:37:44;10.33;7.33;6.00
72854;PMS7003;60991;51.278;22.550;2023-05-10T04:39:14;13.67;9.33;8.00
72854;PMS7003;60991;51.278;22.550;2023-05-10T04:40:45;7.00;7.00;4.67
72854;PMS7003;60991;51.278;22.550;2023-05-10T04:42:15;6.33;6.33;5.33
72854;PMS7003;60991;51.278;22.550;2023-05-10T04:43:45;8.67;8.67;7.33
72854;PMS7003;60991;51.278;22.550;2023-05-10T04:45:15;9.25;8.25;5.50
72854;PMS7003;60991;51.278;22.550;2023-05-10T04:46:46;8.00;3.75;3.25
72854;PMS7003;60991;51.278;22.550;2023-05-10T04:48:16;4.00;4.00;4.00
72854;PMS7003;60991;51.278;22.550;2023-05-10T04:49:46;7.67;5.33;5.00
72854;PMS7003;60991;51.278;22.550;2023-05-10T04:51:16;6.67;5.33;5.33
72854;PMS7003;60991;51.278;22.550;2023-05-10T04:52:46;8.00;5.00;5.00
72854;PMS7003;60991;51.278;22.550;2023-05-10T04:54:17;8.67;7.33;7.00
72854;PMS7003;60991;51.278;22.550;2023-05-10T04:55:47;7.33;7.33;5.33
72854;PMS7003;60991;51.278;22.550;2023-05-10T04:57:17;10.00;5.25;4.00
72854;PMS7003;60991;51.278;22.550;2023-05-10T04:58:47;9.67;8.00;6.67
72854;PMS7003;60991;51.278;22.550;2023-05-10T05:00:17;8.00;8.00;5.33
72854;PMS7003;60991;51.278;22.550;2023-05-10T05:01:48;9.50;5.25;4.50
72854;PMS7003;60991;51.278;22.550;2023-05-10T05:03:18;8.25;7.75;5.00
72854;PMS7003;60991;51.278;22.550;2023-05-10T05:04:48;5.75;5.75;5.00
72854;PMS7003;60991;51.278;22.550;2023-05-10T05:06:19;7.00;5.00;5.00
72854;PMS7003;60991;51.278;22.550;2023-05-10T05:07:49;5.75;5.25;4.00
72854;PMS7003;60991;51.278;22.550;2023-05-10T05:09:19;9.75;9.50;7.00
72854;PMS7003;60991;51.278;22.550;2023-05-10T05:10:50;5.67;5.00;4.00
72854;PMS7003;60991;51.278;22.550;2023-05-10T05:12:20;10.50;5.50;4.25
72854;PMS7003;60991;51.278;22.550;2023-05-10T05:13:50;9.00;5.00;4.67
72854;PMS7003;60991;51.278;22.550;2023-05-10T05:15:20;7.50;5.00;5.00
72854;PMS7003;60991;51.278;22.550;2023-05-10T05:16:51;7.00;7.00;4.00
72854;PMS7003;60991;51.278;22.550;2023-05-10T05:18:22;6.00;4.00;4.00
72854;PMS7003;60991;51.278;22.550;2023-05-10T05:19:52;4.67;3.67;3.00
72854;PMS7003;60991;51.278;22.550;2023-05-10T05:21:22;8.00;7.00;5.00
72854;PMS7003;60991;51.278;22.550;2023-05-10T05:22:52;7.00;7.00;5.00
72854;PMS7003;60991;51.278;22.550;2023-05-10T05:24:23;1.00;0.00;0.00
72854;PMS7003;60991;51.278;22.550;2023-05-10T05:25:53;5.00;5.00;3.67
72854;PMS7003;60991;51.278;22.550;2023-05-10T05:27:24;6.50;4.00;2.75
72854;PMS7003;60991;51.278;22.550;2023-05-10T05:28:54;7.00;3.75;3.00
72854;PMS7003;60991;51.278;22.550;2023-05-10T05:30:25;6.33;6.00;3.00
72854;PMS7003;60991;51.278;22.550;2023-05-10T05:31:55;4.50;4.50;3.50
72854;PMS7003;60991;51.278;22.550;2023-05-10T05:33:25;4.00;4.00;3.33
72854;PMS7003;60991;51.278;22.550;2023-05-10T05:34:55;4.25;4.25;4.00
72854;PMS7003;60991;51.278;22.550;2023-05-10T05:36:25;7.25;7.00;5.00
72854;PMS7003;60991;51.278;22.550;2023-05-10T05:37:56;5.00;5.00;4.33
72854;PMS7003;60991;51.278;22.550;2023-05-10T05:39:26;4.00;4.00;4.00
72854;PMS7003;60991;51.278;22.550;2023-05-10T05:40:56;4.67;3.00;3.00
72854;PMS7003;60991;51.278;22.550;2023-05-10T05:42:27;6.75;5.00;4.25
72854;PMS7003;60991;51.278;22.550;2023-05-10T05:43:57;4.75;4.00;3.00
72854;PMS7003;60991;51.278;22.550;2023-05-10T05:45:27;3.25;3.25;2.50
72854;PMS7003;60991;51.278;22.550;2023-05-10T05:46:57;7.67;7.67;5.33
72854;PMS7003;60991;51.278;22.550;2023-05-10T05:48:29;3.67;3.33;3.00
72854;PMS7003;60991;51.278;22.550;2023-05-10T05:49:59;6.25;4.00;4.00
72854;PMS7003;60991;51.278;22.550;2023-05-10T05:51:30;5.50;5.50;4.25
72854;PMS7003;60991;51.278;22.550;2023-05-10T05:53:00;4.75;4.75;4.00
72854;PMS7003;60991;51.278;22.550;2023-05-10T05:54:31;8.00;5.50;4.00
72854;PMS7003;60991;51.278;22.550;2023-05-10T05:56:01;4.75;3.00;3.00
72854;PMS7003;60991;51.278;22.550;2023-05-10T05:57:32;5.75;5.00;4.25
72854;PMS7003;60991;51.278;22.550;2023-05-10T05:59:02;6.75;6.75;5.00
72854;PMS7003;60991;51.278;22.550;2023-05-10T06:00:33;5.00;4.00;3.33
72854;PMS7003;60991;51.278;22.550;2023-05-10T06:02:03;9.75;7.25;5.75
72854;PMS7003;60991;51.278;22.550;2023-05-10T06:03:33;5.00;4.33;3.67
72854;PMS7003;60991;51.278;22.550;2023-05-10T06:05:03;5.00;4.00;3.33
72854;PMS7003;60991;51.278;22.550;2023-05-10T06:06:34;6.75;5.00;3.00
72854;PMS7003;60991;51.278;22.550;2023-05-10T06:08:07;7.50;5.25;4.00
72854;PMS7003;60991;51.278;22.550;2023-05-10T06:09:37;4.50;4.00;4.00
72854;PMS7003;60991;51.278;22.550;2023-05-10T06:11:08;8.75;6.75;4.75
72854;PMS7003;60991;51.278;22.550;2023-05-10T06:12:38;5.50;5.50;4.00
72854;PMS7003;60991;51.278;22.550;2023-05-10T06:14:08;5.50;5.00;4.00
72854;PMS7003;60991;51.278;22.550;2023-05-10T06:15:38;6.75;6.00;5.25
72854;PMS7003;60991;51.278;22.550;2023-05-10T06:17:08;4.25;4.00;3.75
72854;PMS7003;60991;51.278;22.550;2023-05-10T06:18:39;4.25;3.50;3.25
72854;PMS7003;60991;51.278;22.550;2023-05-10T06:20:09;5.75;4.25;3.00
72854;PMS7003;60991;51.278;22.550;2023-05-10T06:21:40;7.75;4.50;4.00
72854;PMS7003;60991;51.278;22.550;2023-05-10T06:23:10;5.50;5.50;4.00
72854;PMS7003;60991;51.278;22.550;2023-05-10T06:24:40;6.00;3.00;3.00
72854;PMS7003;60991;51.278;22.550;2023-05-10T06:26:10;2.75;1.25;1.00
72854;PMS7003;60991;51.278;22.550;2023-05-10T06:27:41;3.25;3.00;3.00
72854;PMS7003;60991;51.278;22.550;2023-05-10T06:29:11;3.00;3.00;3.00
72854;PMS7003;60991;51.278;22.550;2023-05-10T06:30:41;8.33;6.00;5.00
72854;PMS7003;60991;51.278;22.550;2023-05-10T06:32:11;3.75;3.50;3.00
72854;PMS7003;60991;51.278;22.550;2023-05-10T06:33:42;5.00;4.00;4.00
72854;PMS7003;60991;51.278;22.550;2023-05-10T06:35:12;6.00;4.67;4.00
72854;PMS7003;60991;51.278;22.550;2023-05-10T06:36:42;5.75;5.75;4.50
72854;PMS7003;60991;51.278;22.550;2023-05-10T06:38:12;9.50;3.75;3.50
72854;PMS7003;60991;51.278;22.550;2023-05-10T06:39:42;4.67;4.67;4.00
72854;PMS7003;60991;51.278;22.550;2023-05-10T06:41:13;3.50;3.00;2.50
72854;PMS7003;60991;51.278;22.550;2023-05-10T06:42:43;6.00;4.00;3.25
72854;PMS7003;60991;51.278;22.550;2023-05-10T06:44:13;4.67;3.67;3.00
72854;PMS7003;60991;51.278;22.550;2023-05-10T06:45:43;4.25;3.00;3.00
72854;PMS7003;60991;51.278;22.550;2023-05-10T06:47:14;4.25;3.00;3.00
72854;PMS7003;60991;51.278;22.550;2023-05-10T06:48:44;5.00;4.00;3.00
72854;PMS7003;60991;51.278;22.550;2023-05-10T06:50:14;3.25;3.00;2.00
72854;PMS7003;60991;51.278;22.550;2023-05-10T06:51:56;3.50;3.50;3.50
72854;PMS7003;60991;51.278;22.550;2023-05-10T06:53:27;3.25;3.25;2.50
72854;PMS7003;60991;51.278;22.550;2023-05-10T06:54:57;3.25;3.25;3.00
72854;PMS7003;60991;51.278;22.550;2023-05-10T06:56:27;4.33;3.67;3.00
72854;PMS7003;60991;51.278;22.550;2023-05-10T06:57:57;5.25;5.00;3.00
72854;PMS7003;60991;51.278;22.550;2023-05-10T06:59:27;8.33;6.00;4.67
72854;PMS7003;60991;51.278;22.550;2023-05-10T07:01:04;6.25;5.00;4.00
72854;PMS7003;60991;51.278;22.550;2023-05-10T07:02:35;4.00;4.00;3.75
72854;PMS7003;60991;51.278;22.550;2023-05-10T07:04:06;5.00;4.25;3.75
72854;PMS7003;60991;51.278;22.550;2023-05-10T07:05:36;4.50;4.25;3.00
72854;PMS7003;60991;51.278;22.550;2023-05-10T07:07:06;4.75;4.00;3.00
72854;PMS7003;60991;51.278;22.550;2023-05-10T07:08:36;2.00;2.00;2.00
72854;PMS7003;60991;51.278;22.550;2023-05-10T07:10:06;4.67;4.00;3.00
72854;PMS7003;60991;51.278;22.550;2023-05-10T07:11:37;2.75;2.75;2.00
72854;PMS7003;60991;51.278;22.550;2023-05-10T07:13:07;4.00;4.00;4.00
72854;PMS7003;60991;51.278;22.550;2023-05-10T07:14:37;3.75;3.00;3.00
72854;PMS7003;60991;51.278;22.550;2023-05-10T07:16:07;5.67;3.00;2.00
72854;PMS7003;60991;51.278;22.550;2023-05-10T07:17:38;4.00;3.00;3.00
72854;PMS7003;60991;51.278;22.550;2023-05-10T07:19:08;3.00;3.00;3.00
72854;PMS7003;60991;51.278;22.550;2023-05-10T07:20:38;4.50;3.00;3.00
72854;PMS7003;60991;51.278;22.550;2023-05-10T07:22:08;3.33;3.33;2.67
72854;PMS7003;60991;51.278;22.550;2023-05-10T07:23:38;4.00;3.25;3.00
72854;PMS7003;60991;51.278;22.550;2023-05-10T07:25:09;4.25;3.25;3.00
72854;PMS7003;60991;51.278;22.550;2023-05-10T07:26:39;2.00;2.00;2.00
72854;PMS7003;60991;51.278;22.550;2023-05-10T07:28:09;2.00;2.00;2.00
72854;PMS7003;60991;51.278;22.550;2023-05-10T07:29:39;4.00;3.25;3.00
72854;PMS7003;60991;51.278;22.550;2023-05-10T07:31:10;3.00;3.00;2.25
72854;PMS7003;60991;51.278;22.550;2023-05-10T07:32:40;4.75;3.00;3.00
72854;PMS7003;60991;51.278;22.550;2023-05-10T07:34:10;3.00;3.00;3.00
72854;PMS7003;60991;51.278;22.550;2023-05-10T07:35:40;3.00;3.00;3.00
72854;PMS7003;60991;51.278;22.550;2023-05-10T07:37:11;3.75;3.25;2.50
72854;PMS7003;60991;51.278;22.550;2023-05-10T07:38:41;4.75;4.00;3.25
72854;PMS7003;60991;51.278;22.550;2023-05-10T07:40:12;3.75;3.75;3.25
72854;PMS7003;60991;51.278;22.550;2023-05-10T07:41:42;2.50;2.50;2.00
72854;PMS7003;60991;51.278;22.550;2023-05-10T07:43:12;2.75;2.75;2.00
72854;PMS7003;60991;51.278;22.550;2023-05-10T07:44:42;4.50;4.00;3.50
72854;PMS7003;60991;51.278;22.550;2023-05-10T07:46:12;3.75;3.75;2.75
72854;PMS7003;60991;51.278;22.550;2023-05-10T07:47:43;4.00;4.00;3.00
72854;PMS7003;60991;51.278;22.550;2023-05-10T07:49:13;4.50;3.00;3.00
72854;PMS7003;60991;51.278;22.550;2023-05-10T07:50:43;3.00;3.00;2.25
72854;PMS7003;60991;51.278;22.550;2023-05-10T07:52:13;4.00;4.00;3.00
72854;PMS7003;60991;51.278;22.550;2023-05-10T07:53:43;7.50;3.75;2.00
72854;PMS7003;60991;51.278;22.550;2023-05-10T07:55:14;3.75;2.50;2.25
72854;PMS7003;60991;51.278;22.550;2023-05-10T07:56:44;5.00;2.00;1.50
72854;PMS7003;60991;51.278;22.550;2023-05-10T07:58:14;3.75;2.50;2.25
72854;PMS7003;60991;51.278;22.550;2023-05-10T07:59:44;3.00;3.00;3.00
72854;PMS7003;60991;51.278;22.550;2023-05-10T08:01:14;4.00;4.00;3.75
72854;PMS7003;60991;51.278;22.550;2023-05-10T08:02:45;2.00;2.00;2.00
72854;PMS7003;60991;51.278;22.550;2023-05-10T08:04:16;4.75;3.25;3.25
72854;PMS7003;60991;51.278;22.550;2023-05-10T08:05:46;3.25;3.00;2.00
72854;PMS7003;60991;51.278;22.550;2023-05-10T08:07:16;4.75;4.00;3.75
72854;PMS7003;60991;51.278;22.550;2023-05-10T08:08:47;2.75;2.75;2.00
72854;PMS7003;60991;51.278;22.550;2023-05-10T08:10:18;2.75;2.75;2.00
72854;PMS7003;60991;51.278;22.550;2023-05-10T08:11:48;3.00;3.00;2.25
72854;PMS7003;60991;51.278;22.550;2023-05-10T08:13:18;3.00;3.00;2.00
72854;PMS7003;60991;51.278;22.550;2023-05-10T08:14:48;2.75;2.50;2.00
72854;PMS7003;60991;51.278;22.550;2023-05-10T08:16:19;4.50;4.50;4.00
72854;PMS7003;60991;51.278;22.550;2023-05-10T08:17:49;4.75;3.25;2.25
72854;PMS7003;60991;51.278;22.550;2023-05-10T08:19:21;3.00;3.00;2.00
72854;PMS7003;60991;51.278;22.550;2023-05-10T08:20:51;2.00;2.00;2.00
72854;PMS7003;60991;51.278;22.550;2023-05-10T08:22:22;3.00;1.75;1.50
72854;PMS7003;60991;51.278;22.550;2023-05-10T08:23:52;1.50;0.75;0.75
72854;PMS7003;60991;51.278;22.550;2023-05-10T08:25:22;3.75;2.00;2.00
72854;PMS7003;60991;51.278;22.550;2023-05-10T08:26:52;2.75;1.00;1.00
72854;PMS7003;60991;51.278;22.550;2023-05-10T08:28:22;2.25;2.00;1.25
72854;PMS7003;60991;51.278;22.550;2023-05-10T08:29:53;5.00;3.00;2.25
72854;PMS7003;60991;51.278;22.550;2023-05-10T08:31:23;3.00;3.00;2.50
72854;PMS7003;60991;51.278;22.550;2023-05-10T08:32:53;2.00;2.00;2.00
72854;PMS7003;60991;51.278;22.550;2023-05-10T08:34:23;3.00;1.25;1.00
72854;PMS7003;60991;51.278;22.550;2023-05-10T08:35:53;2.00;2.00;2.00
72854;PMS7003;60991;51.278;22.550;2023-05-10T08:37:24;2.25;2.25;2.00
72854;PMS7003;60991;51.278;22.550;2023-05-10T08:38:54;1.00;1.00;1.00
72854;PMS7003;60991;51.278;22.550;2023-05-10T08:40:24;4.50;2.50;2.50
72854;PMS7003;60991;51.278;22.550;2023-05-10T08:41:57;2.00;1.75;1.75
72854;PMS7003;60991;51.278;22.550;2023-05-10T08:43:31;4.25;2.75;2.25
72854;PMS7003;60991;51.278;22.550;2023-05-10T08:45:01;2.25;2.25;2.00
72854;PMS7003;60991;51.278;22.550;2023-05-10T08:46:33;2.00;2.00;2.00
72854;PMS7003;60991;51.278;22.550;2023-05-10T08:48:07;5.00;3.00;3.00
72854;PMS7003;60991;51.278;22.550;2023-05-10T08:49:38;4.00;4.00;4.00
72854;PMS7003;60991;51.278;22.550;2023-05-10T08:51:09;1.00;1.00;1.00
72854;PMS7003;60991;51.278;22.550;2023-05-10T08:52:44;4.50;2.00;2.00
72854;PMS7003;60991;51.278;22.550;2023-05-10T08:54:17;4.50;3.00;2.00
72854;PMS7003;60991;51.278;22.550;2023-05-10T08:55:48;3.00;3.00;2.75
72854;PMS7003;60991;51.278;22.550;2023-05-10T08:57:18;2.00;2.00;2.00
72854;PMS7003;60991;51.278;22.550;2023-05-10T08:58:49;3.00;2.00;1.00
72854;PMS7003;60991;51.278;22.550;2023-05-10T09:00:20;3.00;2.00;1.00
72854;PMS7003;60991;51.278;22.550;2023-05-10T09:01:51;2.50;2.50;2.00
72854;PMS7003;60991;51.278;22.550;2023-05-10T09:03:23;2.00;2.00;2.00